메인 페이지
METAR-TAF:

METAR-TAF

공항 :

아르한겔스크, 러시아

위도: 64-30N, 경도: 040-44E, 고도: 13m

현재 날씨관측

예보는 17분 전, 14:30시(UTC)에 발표되었습니다.
북서12kt풍과 풍을 오가는
온도 16°C
습도 31%
기압 1027 hPa
시정 10km 이상
고도 3300ft 상공 구름 조금

METAR: ULAA 251430Z 31006MPS 180V350 9999 FEW033 16/M01 Q1027 R26/CLRD70 NOSIG RMK QFE768/1025

시각: 17:47 (14:47 UTC)

예보

예보는 47분 전, 14:00시(UTC)에 발표되었습니다.
예보 대상 시간: 25일 15시부터 26일 15시까지 (UTC)
8kt
시정 10km 이상
고도 2000ft 상공 구름 보통
일시적
25일 15시부터 25일 21시까지 (UTC)
서북서10kt, 순간 최대 풍속 21kt
시정: 3100m
고도 1100ft 상공 구름 많음, 적란운.
약한소나기
전환 중
25일 21시부터 25일 23시까지 (UTC)
남서6kt
일시적
25일 23시부터 26일 12시까지 (UTC)
6kt, 순간 최대 풍속 16kt
고도 1200ft 상공 구름 많음

TAF: ULAA 251400Z 2515/2615 26004MPS 9999 SCT020 TEMPO 2515/2521 30005G11MPS 3100 -SHRA BKN011CB BECMG 2521/2523 22003MPS TEMPO 2523/2612 18003G08MPS BKN012

4,000개 이상의 공항 관측 자료 및 예보 (METAR 및 TAF 보고).

지도상에서 검색 가능한 기상관측소가 노란 점과 빨간 점으로 표시되어 있습니다.

기상관측소 명을 보려면 표시 위로 마우스를 이동하세요.

날씨 관측과 예보를 보려면 클릭하세요.

지도 변경 : 확대하려면 엑스 표시가 있는 녹색 버튼, 축소하려면 빼기 표시가 있는 녹색 버튼, 다음 페이지의 지도를 보려면 녹색 화살표를 클릭하세요.


METAR-TAF: